Morrisville, VT

10:42 AM EDT on April 21, 2015 (GMT -0400)
Lyndonville | | Change Station
CLOSE
Current Station
Airport
Location: Lyndonville,
Elevation: 1188 ft
Nearby Weather Stations

Elev 1188 ft 44.57 °N, 72.02 °W | Updated 7 minutes ago

Overcast
Overcast
47 °F
Feels Like 47 °F
N
5
Wind Variable Wind from South

Today
High -- | Low -- °F
--% Chance of Precip.
Yesterday
High -- | Low -- °F
Precip. -- in
5:56 AM 7:42 PM
Waxing Crescent, 11% visible
Pressure 29.56 in
Visibility 7.0 miles
Clouds Mostly Cloudy 400 ft
Overcast 800 ft
Dew Point 44 °F
Humidity 89%
Rainfall 0.00 in
Snow Depth Not available.
UV 2 out of 12
Pollen 1.40 out of 12
Air Quality Not available.
Flu Activity Regional
METAR KCDA 211435Z AUTO 17004KT 7SM BKN004 OVC008 09/07 A2956 RMK AO2 T00850068

More Conditions Fewer Conditions

Pressure 29.56 in
Visibility 7.0 miles
Clouds Mostly Cloudy 400 ft
Overcast 800 ft
Dew Point 44 °F
Humidity 89%
Rainfall 0.00 in
Snow Depth Not available.
UV 2 out of 12
Pollen 1.40 out of 12
Air Quality Not available.
Flu Activity Regional
METAR KCDA 211435Z AUTO 17004KT 7SM BKN004 OVC008 09/07 A2956 RMK AO2 T00850068

More Conditions Fewer Conditions

10-Day Weather Forecast

Almanac

Astronomy

Apr. 21, 2015 Rise Set
Actual Time
Civil Twilight
Nautical Twilight
Astronomical Twilight
Moon
Length of Visible Light
Length of Day
Tomorrow will be .
, % of the Moon is Illuminated

Today's Extremes

State Highs State Lows

Community

WunderPhotos

Upload Photos

1,815,413 photos uploaded!

WunderBlogs® & News

Nearby

Air Quality

  Air Quality AQ Index Pollutant
Not available.

Snow Depth

Station Depth Elevation

Earthquake Activity

City Distance Mag. Time & Date
Minimum magnitude displayed is 2.5.

Coastal Water Temperatures

Place Temperature

Stations

Nearby Weather Stations

Station Location Temp. Windchill Dew Point Humidity Wind Precip. Elev Updated Type